Time;durP1;ratioP1;P1;durP2;ratioP2;P2;SDS_P1;SDS_P2;PMS_P1;PMS_P2;Temp;Humidity;BMP_temperature;BMP_pressure;BME280_temperature;BME280_humidity;BME280_pressure;Samples;Min_cycle;Max_cycle;Signal;HPM_P1;HPM_P2
2022/05/20 00:00:44;;;;;;;2.25;1.42;;;21.50;96.70;;;;;;5049983;28;20055;-73
2022/05/20 00:03:13;;;;;;;3.78;1.63;;;21.50;96.70;;;;;;5041946;28;20070;-74
2022/05/20 00:05:41;;;;;;;4.28;1.50;;;21.70;96.70;;;;;;5034195;28;20040;-74
2022/05/20 00:08:09;;;;;;;3.67;1.90;;;21.60;96.70;;;;;;5053693;28;20045;-73
2022/05/20 00:10:39;;;;;;;4.80;1.80;;;21.60;96.70;;;;;;5049349;28;20060;-73
2022/05/20 00:13:07;;;;;;;4.55;1.80;;;21.40;96.70;;;;;;5055681;28;20045;-74
2022/05/20 00:15:36;;;;;;;3.38;1.50;;;21.40;96.70;;;;;;5049895;28;20052;-74
2022/05/20 00:18:04;;;;;;;2.67;1.60;;;21.30;96.70;;;;;;5048538;28;20044;-74
2022/05/20 00:20:32;;;;;;;5.22;1.80;;;21.20;96.70;;;;;;5054360;28;20135;-74
2022/05/20 00:23:00;;;;;;;2.75;1.85;;;21.30;96.70;;;;;;5049282;28;20099;-75
2022/05/20 00:25:47;;;;;;;4.22;2.05;;;21.20;96.70;;;;;;5052553;28;20037;-75
2022/05/20 00:28:21;;;;;;;3.92;1.77;;;21.10;96.70;;;;;;5051254;28;20059;-74
2022/05/20 00:30:51;;;;;;;4.38;1.73;;;21.00;96.70;;;;;;5049502;28;20049;-74
2022/05/20 00:33:20;;;;;;;3.20;1.60;;;21.00;96.70;;;;;;5048464;28;20068;-74
2022/05/20 00:35:48;;;;;;;4.10;1.98;;;21.00;96.70;;;;;;5052443;28;20075;-74
2022/05/20 00:38:17;;;;;;;2.97;1.42;;;21.00;96.70;;;;;;5051842;28;20044;-74
2022/05/20 00:40:46;;;;;;;3.67;1.60;;;21.10;96.70;;;;;;5049158;28;20040;-75
2022/05/20 00:43:27;;;;;;;4.07;1.73;;;21.10;96.70;;;;;;5035583;28;20041;-75
2022/05/20 00:45:58;;;;;;;2.67;1.70;;;21.10;96.70;;;;;;5057292;28;20495;-74
2022/05/20 00:48:28;;;;;;;5.43;1.50;;;21.10;96.70;;;;;;5051464;28;20072;-75
2022/05/20 00:50:59;;;;;;;4.03;1.48;;;21.10;96.70;;;;;;5051064;28;20045;-74
2022/05/20 00:53:33;;;;;;;2.67;1.42;;;21.00;96.70;;;;;;5051423;28;20417;-75
2022/05/20 00:56:03;;;;;;;3.03;1.60;;;21.00;96.70;;;;;;5048771;28;20142;-74
2022/05/20 00:58:33;;;;;;;3.95;1.70;;;21.00;96.70;;;;;;5054394;28;20122;-74
2022/05/20 01:01:04;;;;;;;3.63;1.60;;;21.00;96.70;;;;;;5050243;28;20594;-74
2022/05/20 01:03:32;;;;;;;2.70;1.77;;;21.00;96.70;;;;;;5052020;28;20045;-75
2022/05/20 01:06:00;;;;;;;3.30;1.77;;;21.00;96.70;;;;;;5055526;28;20410;-75
2022/05/20 01:08:31;;;;;;;3.28;1.80;;;21.00;96.70;;;;;;5056853;28;20499;-75
2022/05/20 01:10:59;;;;;;;2.47;1.80;;;21.00;96.70;;;;;;5053349;28;20421;-72
2022/05/20 01:13:29;;;;;;;5.30;1.98;;;21.00;96.70;;;;;;5054109;28;20045;-70
2022/05/20 01:16:03;;;;;;;2.83;1.80;;;20.90;96.70;;;;;;5051221;28;20147;-72
2022/05/20 01:18:35;;;;;;;3.65;1.70;;;20.90;96.70;;;;;;5050473;28;20041;-72
2022/05/20 01:21:04;;;;;;;3.25;1.75;;;21.00;96.70;;;;;;5048993;28;20049;-72
2022/05/20 01:23:35;;;;;;;5.18;2.15;;;21.00;96.70;;;;;;5050565;28;20051;-72
2022/05/20 01:26:05;;;;;;;3.88;1.73;;;20.90;96.70;;;;;;5051139;28;20048;-72
2022/05/20 01:28:34;;;;;;;2.33;1.67;;;20.90;96.70;;;;;;5054165;28;20052;-72
2022/05/20 01:31:04;;;;;;;4.10;1.83;;;20.80;96.70;;;;;;5051604;28;20079;-72
2022/05/20 01:33:35;;;;;;;3.20;1.60;;;20.70;96.70;;;;;;5055409;28;20734;-72
2022/05/20 01:36:07;;;;;;;2.20;1.50;;;20.60;96.70;;;;;;5062146;28;20048;-71
2022/05/20 01:38:37;;;;;;;4.75;1.83;;;20.60;96.70;;;;;;5059075;28;20047;-72
2022/05/20 01:41:08;;;;;;;3.13;1.70;;;20.60;96.70;;;;;;5056162;28;20583;-72
2022/05/20 01:44:03;;;;;;;6.03;2.10;;;20.60;96.70;;;;;;5058551;28;20036;-73
2022/05/20 01:46:40;;;;;;;2.72;1.40;;;20.50;96.70;;;;;;5055870;28;20446;-72
2022/05/20 01:49:17;;;;;;;2.28;1.45;;;20.40;96.70;;;;;;5055850;28;20351;-73
2022/05/20 01:51:50;;;;;;;2.10;1.73;;;20.50;96.70;;;;;;5060949;28;20048;-73
2022/05/20 01:54:27;;;;;;;3.33;1.52;;;20.40;96.70;;;;;;5055832;28;20067;-72
2022/05/20 01:57:03;;;;;;;2.90;1.50;;;20.30;96.70;;;;;;5049961;28;20049;-72
2022/05/20 01:59:34;;;;;;;2.42;1.63;;;20.30;96.70;;;;;;5059785;28;20041;-73
2022/05/20 02:02:06;;;;;;;3.17;1.80;;;20.40;96.70;;;;;;5059407;28;20048;-73
2022/05/20 02:04:43;;;;;;;3.63;1.90;;;20.30;96.70;;;;;;5052352;28;20052;-73
2022/05/20 02:07:16;;;;;;;4.65;2.03;;;20.30;96.70;;;;;;5041703;28;20053;-73
2022/05/20 02:09:52;;;;;;;3.05;1.80;;;20.20;96.70;;;;;;5056956;28;20456;-73
2022/05/20 02:12:41;;;;;;;3.65;1.63;;;20.20;96.70;;;;;;5058779;28;20510;-74
2022/05/20 02:15:14;;;;;;;2.35;1.75;;;20.20;96.70;;;;;;5058944;28;20052;-73
2022/05/20 02:17:46;;;;;;;2.30;1.70;;;20.20;96.70;;;;;;5057833;28;20045;-73
2022/05/20 02:20:18;;;;;;;1.63;1.52;;;20.20;96.70;;;;;;5051893;28;20156;-72
2022/05/20 02:22:51;;;;;;;3.72;1.77;;;20.10;96.70;;;;;;5052167;28;20044;-73
2022/05/20 02:25:24;;;;;;;4.00;1.77;;;20.10;96.70;;;;;;5053262;28;20495;-73
2022/05/20 02:28:04;;;;;;;4.28;1.83;;;20.10;96.70;;;;;;5051983;28;20506;-73
2022/05/20 02:30:36;;;;;;;5.15;2.53;;;19.80;96.70;;;;;;5048800;28;20064;-73
2022/05/20 02:33:08;;;;;;;4.82;2.03;;;19.80;96.70;;;;;;5059753;28;20048;-72
2022/05/20 02:35:36;;;;;;;4.03;1.77;;;19.80;96.70;;;;;;5051869;28;20625;-72
2022/05/20 02:38:06;;;;;;;4.53;1.52;;;19.70;96.70;;;;;;5050342;28;20504;-72
2022/05/20 02:40:37;;;;;;;4.38;1.95;;;19.70;96.70;;;;;;5058366;28;20213;-73
2022/05/20 02:43:05;;;;;;;2.83;1.73;;;19.70;96.70;;;;;;5051193;28;20068;-73
2022/05/20 02:45:34;;;;;;;2.22;1.73;;;19.60;96.70;;;;;;5055433;28;20458;-73
2022/05/20 02:48:05;;;;;;;3.53;1.80;;;19.50;96.70;;;;;;5052114;28;20078;-73
2022/05/20 02:50:33;;;;;;;2.83;2.10;;;19.70;96.70;;;;;;5054265;28;20949;-73
2022/05/20 02:53:01;;;;;;;2.30;1.75;;;19.80;96.70;;;;;;5048549;28;20052;-73
2022/05/20 02:55:29;;;;;;;5.70;1.85;;;19.60;96.70;;;;;;5050570;28;20579;-73
2022/05/20 02:57:58;;;;;;;3.83;2.15;;;19.50;96.70;;;;;;5053567;28;20033;-72
2022/05/20 03:05:59;;;;;;;2.37;1.80;;;19.50;96.70;;;;;;5060107;28;20151;-73
2022/05/20 03:08:27;;;;;;;4.88;2.00;;;19.50;96.70;;;;;;5047305;28;20301;-72
2022/05/20 03:10:55;;;;;;;3.92;1.92;;;19.50;96.70;;;;;;5052961;28;20099;-73
2022/05/20 03:13:25;;;;;;;3.40;2.05;;;19.60;96.70;;;;;;5050280;28;20062;-73
2022/05/20 03:15:53;;;;;;;6.57;2.13;;;19.50;96.70;;;;;;5055996;28;20046;-73
2022/05/20 03:18:21;;;;;;;2.78;1.90;;;19.50;96.70;;;;;;5033720;28;20410;-71
2022/05/20 03:20:49;;;;;;;4.63;1.85;;;19.50;96.70;;;;;;5058210;28;20052;-73
2022/05/20 03:23:16;;;;;;;3.50;1.80;;;19.50;96.70;;;;;;5052004;28;20519;-72
2022/05/20 03:26:05;;;;;;;3.50;2.13;;;19.40;96.70;;;;;;5049195;28;20068;-73
2022/05/20 03:28:35;;;;;;;4.25;2.00;;;19.30;96.70;;;;;;5047616;28;20060;-73
2022/05/20 03:31:07;;;;;;;5.35;2.03;;;19.40;96.70;;;;;;5052585;28;20072;-72
2022/05/20 03:33:36;;;;;;;4.13;2.00;;;19.40;96.70;;;;;;5050659;28;20051;-73
2022/05/20 03:36:04;;;;;;;4.10;2.22;;;19.40;96.70;;;;;;5051837;28;20041;-73
2022/05/20 03:38:32;;;;;;;5.55;2.10;;;19.30;96.70;;;;;;5057260;28;20067;-73
2022/05/20 03:41:00;;;;;;;6.13;2.42;;;19.40;96.70;;;;;;5051719;28;20037;-73
2022/05/20 03:43:28;;;;;;;2.30;2.10;;;19.30;96.70;;;;;;5057984;28;20052;-72
2022/05/20 03:45:57;;;;;;;4.65;2.00;;;19.30;96.70;;;;;;5053768;28;20037;-73
2022/05/20 03:48:26;;;;;;;7.15;2.20;;;19.20;96.70;;;;;;5059000;28;20791;-73
2022/05/20 03:50:53;;;;;;;5.50;2.05;;;19.20;96.70;;;;;;5032213;28;20059;-73
2022/05/20 03:53:21;;;;;;;6.10;2.03;;;19.20;96.70;;;;;;5049346;28;20039;-73
2022/05/20 03:55:49;;;;;;;3.80;2.25;;;19.30;96.70;;;;;;5054322;28;20040;-73
2022/05/20 03:58:16;;;;;;;3.95;1.95;;;19.30;96.70;;;;;;5047204;28;20048;-73
2022/05/20 04:03:32;;;;;;;3.90;1.95;;;19.30;96.70;;;;;;5054888;28;20048;-73
2022/05/20 04:06:00;;;;;;;4.75;2.00;;;19.20;96.70;;;;;;5053064;28;20410;-74
2022/05/20 04:08:28;;;;;;;2.78;1.83;;;19.20;96.70;;;;;;5055412;28;20464;-75
2022/05/20 04:10:56;;;;;;;2.85;1.90;;;19.20;96.70;;;;;;5050373;28;20041;-75
2022/05/20 04:13:23;;;;;;;1.92;1.40;;;19.10;96.70;;;;;;5053287;28;20055;-73
2022/05/20 04:15:54;;;;;;;3.60;2.08;;;19.00;96.70;;;;;;5047698;28;20052;-74
2022/05/20 04:18:21;;;;;;;4.03;1.88;;;19.10;96.70;;;;;;5058334;28;20508;-74
2022/05/20 04:20:51;;;;;;;6.13;1.95;;;19.20;96.70;;;;;;5051951;28;20617;-75
2022/05/20 04:23:20;;;;;;;4.10;2.47;;;19.10;96.70;;;;;;5052261;28;20527;-74
2022/05/20 04:25:48;;;;;;;9.18;2.92;;;19.20;96.70;;;;;;5058021;28;20040;-74
2022/05/20 04:28:16;;;;;;;4.55;2.28;;;19.20;96.70;;;;;;5052680;28;20044;-74
2022/05/20 04:30:44;;;;;;;2.78;1.85;;;19.30;96.70;;;;;;5048487;28;20046;-74
2022/05/20 04:33:13;;;;;;;4.80;2.08;;;19.20;96.70;;;;;;5054409;28;20044;-74
2022/05/20 04:35:40;;;;;;;5.00;2.17;;;19.10;96.70;;;;;;5052089;28;20050;-75
2022/05/20 04:38:09;;;;;;;5.70;2.35;;;19.10;96.70;;;;;;5055931;28;20423;-74
2022/05/20 04:40:37;;;;;;;6.60;2.28;;;19.10;96.70;;;;;;5056288;28;20065;-74
2022/05/20 04:48:38;;;;;;;3.65;2.15;;;19.10;96.70;;;;;;5054493;28;20057;-75
2022/05/20 04:51:06;;;;;;;7.55;2.58;;;19.10;96.70;;;;;;5041035;28;20045;-75
2022/05/20 04:56:21;;;;;;;3.63;2.22;;;19.10;96.70;;;;;;5050397;28;20056;-73
2022/05/20 04:58:49;;;;;;;6.88;2.50;;;19.20;96.70;;;;;;5038339;28;20422;-72
2022/05/20 05:01:17;;;;;;;6.45;2.55;;;19.20;96.70;;;;;;5057910;28;20037;-73
2022/05/20 05:03:45;;;;;;;5.35;2.63;;;19.30;96.70;;;;;;5054972;28;20045;-73
2022/05/20 05:06:13;;;;;;;5.28;2.92;;;19.40;96.70;;;;;;5049872;28;20456;-73
2022/05/20 05:08:42;;;;;;;4.40;2.85;;;19.30;96.70;;;;;;5050524;28;20051;-72
2022/05/20 05:11:10;;;;;;;6.20;2.67;;;19.30;96.70;;;;;;5057772;28;20593;-71
2022/05/20 05:13:44;;;;;;;6.80;3.08;;;19.30;96.70;;;;;;5053792;28;20054;-73
2022/05/20 05:16:12;;;;;;;7.35;2.85;;;19.50;96.70;;;;;;5054490;28;20509;-72
2022/05/20 05:18:40;;;;;;;5.85;3.40;;;19.60;96.70;;;;;;5054084;28;20075;-71
2022/05/20 05:21:07;;;;;;;5.75;2.90;;;19.60;96.70;;;;;;5040069;28;20529;-72
2022/05/20 05:23:35;;;;;;;4.82;2.63;;;19.60;96.70;;;;;;5054825;28;20041;-72
2022/05/20 05:26:04;;;;;;;8.15;3.65;;;19.70;96.70;;;;;;5057411;28;20538;-72
2022/05/20 05:28:32;;;;;;;9.80;5.40;;;19.70;96.70;;;;;;5056954;28;20410;-72
2022/05/20 05:31:00;;;;;;;10.23;5.10;;;19.60;96.70;;;;;;5054535;28;20079;-73
2022/05/20 05:33:28;;;;;;;7.45;4.93;;;19.60;96.70;;;;;;5052161;28;20040;-72
2022/05/20 05:35:56;;;;;;;7.13;4.28;;;19.70;96.70;;;;;;5057442;28;20045;-73
2022/05/20 05:38:25;;;;;;;6.15;3.50;;;19.80;96.70;;;;;;5055381;28;20132;-72
2022/05/20 05:40:52;;;;;;;5.78;3.28;;;19.80;96.70;;;;;;5034006;28;20596;-72
2022/05/20 05:43:22;;;;;;;5.40;3.45;;;19.80;96.70;;;;;;5059597;28;20102;-72
2022/05/20 05:45:50;;;;;;;6.25;3.10;;;19.70;96.70;;;;;;5052335;28;20049;-72
2022/05/20 05:48:18;;;;;;;6.15;3.13;;;19.70;96.70;;;;;;5059523;28;20053;-72
2022/05/20 05:50:46;;;;;;;3.95;3.33;;;19.70;96.70;;;;;;5052635;28;20123;-72
2022/05/20 05:53:16;;;;;;;7.10;3.17;;;19.80;96.70;;;;;;5056870;28;20102;-73
2022/05/20 05:55:46;;;;;;;5.45;2.85;;;19.90;96.70;;;;;;5050373;28;20048;-73
2022/05/20 05:58:15;;;;;;;4.97;3.00;;;20.10;96.70;;;;;;5054168;28;20060;-72
2022/05/20 06:00:44;;;;;;;6.55;2.70;;;20.20;96.70;;;;;;5055571;28;20036;-72
2022/05/20 06:03:15;;;;;;;7.00;2.72;;;20.30;96.70;;;;;;5052834;28;20083;-73
2022/05/20 06:05:44;;;;;;;3.95;2.20;;;20.30;96.70;;;;;;5054277;28;20041;-73
2022/05/20 06:08:12;;;;;;;3.08;2.20;;;20.40;96.70;;;;;;5051210;28;20106;-73
2022/05/20 06:10:40;;;;;;;4.50;2.22;;;20.40;96.70;;;;;;5055856;28;20048;-72
2022/05/20 06:13:09;;;;;;;4.82;2.35;;;20.50;96.70;;;;;;5052275;28;20602;-73
2022/05/20 06:15:38;;;;;;;4.60;2.30;;;20.60;96.70;;;;;;5054095;28;20380;-72
2022/05/20 06:18:08;;;;;;;3.45;2.25;;;20.60;96.70;;;;;;5055657;28;20047;-71
2022/05/20 06:20:36;;;;;;;6.13;2.53;;;20.70;96.70;;;;;;5052805;28;20764;-72
2022/05/20 06:23:04;;;;;;;7.32;2.47;;;20.80;96.70;;;;;;5037737;28;20059;-72
2022/05/20 06:25:32;;;;;;;8.27;3.13;;;20.80;96.70;;;;;;5032828;28;20078;-73
2022/05/20 06:28:05;;;;;;;7.93;3.17;;;20.90;96.70;;;;;;5054739;28;20052;-73
2022/05/20 06:30:33;;;;;;;5.03;2.30;;;20.80;96.70;;;;;;5054767;28;20048;-73
2022/05/20 06:33:02;;;;;;;5.00;2.53;;;21.00;96.70;;;;;;5056979;28;21078;-72
2022/05/20 06:41:06;;;;;;;6.60;2.95;;;21.20;96.70;;;;;;5050107;28;20053;-72
2022/05/20 06:43:34;;;;;;;6.55;3.03;;;21.20;96.70;;;;;;5048532;28;20438;-73
2022/05/20 06:46:03;;;;;;;9.63;3.22;;;21.20;96.70;;;;;;5053921;28;20525;-74
2022/05/20 06:48:53;;;;;;;4.38;2.70;;;21.20;96.70;;;;;;5052745;28;20063;-73
2022/05/20 06:51:23;;;;;;;5.75;3.53;;;21.30;96.70;;;;;;5053643;28;20676;-73
2022/05/20 06:53:53;;;;;;;8.48;3.00;;;21.30;96.70;;;;;;5052443;28;20041;-72
2022/05/20 06:56:24;;;;;;;7.38;3.35;;;21.40;96.70;;;;;;5049952;28;20060;-73
2022/05/20 06:58:51;;;;;;;5.00;2.53;;;21.40;96.70;;;;;;5044570;28;20166;-74
2022/05/20 07:01:19;;;;;;;8.15;3.28;;;21.50;96.70;;;;;;5061340;28;20525;-72
2022/05/20 07:03:47;;;;;;;5.25;3.28;;;21.50;96.70;;;;;;5036616;28;20138;-72
2022/05/20 07:06:16;;;;;;;4.82;3.35;;;21.50;96.70;;;;;;5056546;28;20082;-72
2022/05/20 07:08:48;;;;;;;8.27;3.95;;;21.60;96.70;;;;;;5058317;28;20048;-73
2022/05/20 07:11:18;;;;;;;8.30;3.38;;;21.70;96.70;;;;;;5043329;28;20115;-75
2022/05/20 07:13:46;;;;;;;6.63;3.22;;;21.70;96.70;;;;;;5053040;28;20458;-75
2022/05/20 07:16:17;;;;;;;8.23;3.25;;;21.70;96.70;;;;;;5053274;28;20044;-75
2022/05/20 07:18:46;;;;;;;4.72;2.75;;;21.80;96.70;;;;;;5056879;28;20044;-75
2022/05/20 07:21:14;;;;;;;6.80;3.05;;;21.90;96.70;;;;;;5055197;28;20724;-75
2022/05/20 07:23:41;;;;;;;7.72;3.10;;;22.00;96.70;;;;;;5054811;28;20048;-75
2022/05/20 07:26:13;;;;;;;6.75;2.85;;;22.00;96.70;;;;;;5058146;28;20037;-74
2022/05/20 07:28:40;;;;;;;5.07;3.13;;;22.00;96.70;;;;;;5049504;28;20056;-74
2022/05/20 07:31:08;;;;;;;4.18;2.72;;;22.00;96.70;;;;;;5054880;28;20075;-75
2022/05/20 07:33:39;;;;;;;7.18;3.15;;;22.20;96.70;;;;;;5054547;28;20059;-75
2022/05/20 07:36:07;;;;;;;7.18;3.03;;;22.20;96.70;;;;;;5052355;28;20090;-74
2022/05/20 07:38:36;;;;;;;4.82;3.03;;;22.30;96.70;;;;;;5051505;28;20043;-75
2022/05/20 07:41:04;;;;;;;5.90;3.13;;;22.30;96.70;;;;;;5055437;28;20515;-74
2022/05/20 07:43:33;;;;;;;6.97;3.10;;;22.40;96.70;;;;;;5054208;28;20049;-74
2022/05/20 07:46:02;;;;;;;6.82;2.78;;;22.40;96.70;;;;;;5051076;28;20049;-73
2022/05/20 07:48:30;;;;;;;9.02;2.88;;;22.50;96.70;;;;;;5051603;28;20098;-75
2022/05/20 07:51:00;;;;;;;5.03;2.47;;;22.50;96.70;;;;;;5053878;28;20041;-76
2022/05/20 07:53:35;;;;;;;5.03;2.75;;;22.60;96.70;;;;;;5055597;28;20040;-75
2022/05/20 07:56:09;;;;;;;6.90;3.85;;;22.70;96.70;;;;;;5052661;28;20496;-76
2022/05/20 07:58:44;;;;;;;7.18;3.13;;;22.70;96.70;;;;;;5054749;28;20074;-76
2022/05/20 08:01:18;;;;;;;3.67;2.75;;;22.80;96.70;;;;;;5051088;28;20040;-76
2022/05/20 08:06:36;;;;;;;5.90;2.67;;;22.90;96.70;;;;;;5055425;28;20044;-76
2022/05/20 08:09:06;;;;;;;7.07;2.80;;;22.90;96.70;;;;;;5054488;28;20048;-76
2022/05/20 08:11:35;;;;;;;9.80;2.95;;;23.00;96.70;;;;;;5045748;28;20049;-76
2022/05/20 08:14:04;;;;;;;6.55;2.55;;;23.00;96.70;;;;;;5055409;28;20076;-74
2022/05/20 08:16:33;;;;;;;7.45;2.72;;;23.10;96.70;;;;;;5052689;28;20059;-73
2022/05/20 08:19:01;;;;;;;3.13;2.53;;;23.10;96.70;;;;;;5048379;28;20065;-73
2022/05/20 08:21:28;;;;;;;4.35;2.50;;;23.20;96.70;;;;;;5053016;28;20052;-73
2022/05/20 08:23:56;;;;;;;4.95;2.50;;;23.30;96.70;;;;;;5050420;28;20040;-74
2022/05/20 08:26:24;;;;;;;5.55;2.63;;;23.40;96.70;;;;;;5033784;28;20072;-73
2022/05/20 08:28:52;;;;;;;7.13;3.10;;;23.50;96.70;;;;;;5051021;28;20502;-73
2022/05/20 08:31:22;;;;;;;4.72;2.45;;;23.50;96.70;;;;;;5055146;28;20041;-74
2022/05/20 08:33:51;;;;;;;5.25;2.42;;;23.60;96.70;;;;;;5039560;28;20043;-74
2022/05/20 08:36:19;;;;;;;5.85;2.92;;;23.60;96.70;;;;;;5051761;28;20044;-73
2022/05/20 08:38:47;;;;;;;5.00;2.83;;;23.70;96.70;;;;;;5051395;28;20049;-73
2022/05/20 08:41:26;;;;;;;3.60;2.33;;;23.70;96.70;;;;;;5054642;28;20048;-74
2022/05/20 08:43:54;;;;;;;4.72;2.95;;;23.80;96.70;;;;;;5052953;28;20044;-74
2022/05/20 08:46:24;;;;;;;5.35;2.33;;;23.90;96.70;;;;;;5056044;28;20049;-74
2022/05/20 08:48:54;;;;;;;5.57;2.53;;;24.00;96.70;;;;;;5061940;28;20098;-73
2022/05/20 08:51:23;;;;;;;5.93;2.35;;;24.00;96.70;;;;;;5058604;28;20080;-74
2022/05/20 08:53:51;;;;;;;7.10;3.63;;;24.00;96.70;;;;;;5058130;28;20097;-75
2022/05/20 08:56:22;;;;;;;3.45;2.05;;;24.20;96.70;;;;;;5055496;28;20510;-76
2022/05/20 08:58:52;;;;;;;4.75;2.30;;;24.20;96.70;;;;;;5059236;28;20049;-76
2022/05/20 09:01:31;;;;;;;5.95;2.70;;;24.20;96.70;;;;;;5057869;28;20051;-74
2022/05/20 09:04:01;;;;;;;5.72;2.10;;;24.30;96.70;;;;;;5042210;28;20109;-76
2022/05/20 09:06:30;;;;;;;6.75;2.20;;;24.40;96.70;;;;;;5037822;28;20045;-75
2022/05/20 09:09:06;;;;;;;4.47;1.70;;;24.50;96.70;;;;;;5055810;28;20462;-76
2022/05/20 09:11:34;;;;;;;5.72;2.72;;;24.50;96.70;;;;;;5058612;28;20040;-76
2022/05/20 09:17:09;;;;;;;4.82;1.90;;;24.60;96.70;;;;;;5059067;28;20060;-75
2022/05/20 09:19:39;;;;;;;4.47;1.88;;;24.70;96.70;;;;;;5053422;28;20041;-74
2022/05/20 09:22:12;;;;;;;3.88;1.90;;;24.90;96.70;;;;;;5050828;28;20110;-74
2022/05/20 09:24:42;;;;;;;4.18;1.75;;;24.90;96.70;;;;;;5057813;28;20429;-73
2022/05/20 09:27:12;;;;;;;3.03;1.48;;;24.90;96.70;;;;;;5053553;28;20056;-73
2022/05/20 09:29:44;;;;;;;2.55;1.60;;;25.00;96.70;;;;;;5059579;28;20114;-73
2022/05/20 09:32:26;;;;;;;5.57;1.58;;;25.10;96.70;;;;;;5053029;28;21089;-73
2022/05/20 09:34:58;;;;;;;5.38;1.67;;;25.20;96.70;;;;;;5055677;28;20049;-74
2022/05/20 09:37:31;;;;;;;3.15;1.65;;;25.30;96.70;;;;;;5056404;28;20102;-73
2022/05/20 09:40:19;;;;;;;6.53;1.98;;;25.40;96.70;;;;;;5061363;28;20044;-74
2022/05/20 09:43:10;;;;;;;3.58;1.45;;;25.40;96.70;;;;;;5055497;28;20135;-73
2022/05/20 09:45:43;;;;;;;5.35;1.80;;;25.50;96.70;;;;;;5055832;28;20139;-73
2022/05/20 09:48:20;;;;;;;4.25;1.60;;;25.60;96.70;;;;;;5038043;28;20766;-73
2022/05/20 09:51:02;;;;;;;4.78;1.45;;;25.60;96.70;;;;;;5055367;28;20037;-73
2022/05/20 09:53:35;;;;;;;3.85;1.45;;;25.70;96.70;;;;;;5053511;28;20585;-73
2022/05/20 09:56:19;;;;;;;3.78;1.50;;;25.80;96.70;;;;;;5053676;28;20053;-73
2022/05/20 09:59:02;;;;;;;3.97;1.60;;;25.80;96.70;;;;;;5059228;28;20391;-74
2022/05/20 10:01:30;;;;;;;5.72;1.88;;;25.80;96.70;;;;;;5054304;28;20041;-73
2022/05/20 10:04:05;;;;;;;3.05;1.50;;;26.00;96.70;;;;;;5059681;28;20049;-74
2022/05/20 10:06:40;;;;;;;4.10;1.60;;;26.10;96.70;;;;;;5055259;28;20043;-73
2022/05/20 10:09:21;;;;;;;5.22;1.60;;;26.20;96.70;;;;;;5057115;28;20069;-74
2022/05/20 10:11:53;;;;;;;6.88;2.05;;;26.10;96.70;;;;;;5055120;28;20045;-74
2022/05/20 10:14:27;;;;;;;2.97;1.77;;;26.20;96.70;;;;;;5054278;28;20076;-73
2022/05/20 10:17:00;;;;;;;3.45;1.63;;;26.30;96.70;;;;;;5055129;28;20339;-73
2022/05/20 10:19:42;;;;;;;4.65;2.00;;;26.40;96.70;;;;;;5059623;28;20517;-74
2022/05/20 10:22:21;;;;;;;6.00;1.67;;;26.50;96.70;;;;;;5055105;28;20052;-74
2022/05/20 10:24:58;;;;;;;4.03;1.77;;;26.60;96.70;;;;;;5050257;28;20049;-74
2022/05/20 10:27:34;;;;;;;2.88;1.60;;;26.70;96.70;;;;;;5050227;28;20059;-74
2022/05/20 10:32:59;;;;;;;2.22;1.48;;;26.70;96.30;;;;;;5056011;28;20044;-74
2022/05/20 10:35:36;;;;;;;4.07;1.80;;;26.70;96.70;;;;;;5058749;28;20072;-75
2022/05/20 10:38:30;;;;;;;3.70;1.73;;;26.90;96.70;;;;;;5050453;28;20052;-74
2022/05/20 10:41:04;;;;;;;3.67;1.83;;;27.00;96.70;;;;;;5055873;28;20066;-74
2022/05/20 10:49:44;;;;;;;5.30;1.70;;;27.40;96.70;;;;;;5047350;28;20155;-74
2022/05/20 10:52:39;;;;;;;3.55;1.40;;;27.40;96.50;;;;;;5057172;28;20497;-74
2022/05/20 10:55:17;;;;;;;5.05;1.67;;;27.40;95.50;;;;;;5055108;28;20143;-74
2022/05/20 10:58:01;;;;;;;4.28;1.70;;;27.40;95.60;;;;;;5047351;28;20171;-74
2022/05/20 11:00:44;;;;;;;5.95;1.77;;;27.50;96.30;;;;;;5059109;28;20719;-73
2022/05/20 11:03:51;;;;;;;4.22;1.95;;;27.60;96.70;;;;;;5053441;28;20099;-73
2022/05/20 11:06:54;;;;;;;4.70;2.08;;;27.80;96.70;;;;;;5050361;28;20510;-74
2022/05/20 11:09:36;;;;;;;4.00;1.90;;;27.90;96.70;;;;;;5053764;28;20132;-74
2022/05/20 11:12:05;;;;;;;4.85;1.73;;;28.00;96.70;;;;;;5049631;28;20090;-73
2022/05/20 11:14:52;;;;;;;5.40;1.90;;;28.10;95.10;;;;;;5034225;28;20095;-73
2022/05/20 11:17:39;;;;;;;3.58;1.80;;;28.10;96.00;;;;;;5056226;28;20045;-73
2022/05/20 11:20:15;;;;;;;6.05;1.88;;;28.30;96.70;;;;;;5054638;28;20049;-73
2022/05/20 11:23:19;;;;;;;6.35;2.00;;;28.30;94.90;;;;;;5049305;28;20147;-73
2022/05/20 11:26:11;;;;;;;4.75;1.92;;;28.20;95.20;;;;;;5052391;28;20053;-74
2022/05/20 11:29:16;;;;;;;3.55;1.90;;;28.00;94.00;;;;;;5050570;28;20467;-74
2022/05/20 11:31:49;;;;;;;7.60;1.98;;;28.10;94.20;;;;;;5052453;28;20044;-74
2022/05/20 11:34:38;;;;;;;2.63;1.67;;;28.30;93.40;;;;;;5055229;28;20059;-72
2022/05/20 11:37:33;;;;;;;4.75;1.90;;;28.40;92.50;;;;;;5047579;28;20128;-74
2022/05/20 11:40:24;;;;;;;4.00;1.75;;;28.70;92.70;;;;;;5052444;28;20469;-74
2022/05/20 11:43:32;;;;;;;2.75;1.35;;;28.60;90.30;;;;;;5051885;28;20052;-73
2022/05/20 11:46:09;;;;;;;2.95;1.30;;;28.70;90.10;;;;;;5021900;28;20052;-73
2022/05/20 11:48:54;;;;;;;4.47;1.35;;;28.80;88.50;;;;;;5049522;28;20107;-74
2022/05/20 11:51:49;;;;;;;4.90;1.38;;;28.80;88.30;;;;;;5055649;28;20045;-73
2022/05/20 11:54:21;;;;;;;3.90;1.55;;;28.90;88.60;;;;;;5050997;28;20368;-73
2022/05/20 11:56:54;;;;;;;3.03;1.35;;;28.70;87.50;;;;;;5049914;28;20052;-73
2022/05/20 11:59:27;;;;;;;3.47;1.23;;;28.70;87.30;;;;;;5052297;28;20056;-72
2022/05/20 12:01:59;;;;;;;3.17;1.05;;;28.80;85.30;;;;;;5054356;28;20041;-73
2022/05/20 12:04:31;;;;;;;2.60;1.35;;;28.90;83.90;;;;;;5041487;28;20102;-74
2022/05/20 12:07:04;;;;;;;5.10;1.10;;;29.10;84.10;;;;;;5047985;28;20072;-73
2022/05/20 12:09:36;;;;;;;2.47;1.02;;;29.10;81.60;;;;;;5052931;28;20056;-73
2022/05/20 12:12:24;;;;;;;3.88;1.10;;;29.20;82.30;;;;;;5031946;28;21028;-73
2022/05/20 12:15:29;;;;;;;3.00;0.98;;;29.20;80.50;;;;;;5052673;28;20044;-73
2022/05/20 12:18:17;;;;;;;2.33;1.05;;;29.20;80.80;;;;;;5053890;28;20053;-74
2022/05/20 12:26:39;;;;;;;3.40;1.27;;;29.40;79.20;;;;;;5058237;28;20040;-73
2022/05/20 12:29:47;;;;;;;2.90;1.00;;;29.40;80.10;;;;;;5053074;28;20102;-73
2022/05/20 12:32:42;;;;;;;2.33;1.08;;;29.20;79.70;;;;;;5048636;28;20103;-74
2022/05/20 12:35:20;;;;;;;4.28;1.13;;;29.30;79.90;;;;;;5051575;28;20040;-74
2022/05/20 12:38:14;;;;;;;4.75;1.27;;;29.50;79.50;;;;;;5042008;28;20334;-73
2022/05/20 12:40:56;;;;;;;4.35;1.00;;;29.70;80.60;;;;;;5040514;28;20129;-73
2022/05/20 12:43:46;;;;;;;1.92;0.95;;;29.70;79.60;;;;;;5055516;28;20041;-73
2022/05/20 12:46:21;;;;;;;4.45;1.30;;;29.60;79.40;;;;;;5053051;28;20045;-73
2022/05/20 12:48:55;;;;;;;4.10;1.45;;;29.50;78.20;;;;;;5050995;28;20177;-72
2022/05/20 12:51:23;;;;;;;3.55;1.00;;;29.40;78.60;;;;;;5048448;28;20073;-74
2022/05/20 12:53:51;;;;;;;3.83;1.27;;;29.50;80.40;;;;;;5058117;28;20041;-74
2022/05/20 12:56:30;;;;;;;5.72;1.33;;;29.60;80.10;;;;;;5035894;28;20562;-73
2022/05/20 12:59:19;;;;;;;3.13;1.08;;;29.80;79.40;;;;;;5054330;28;20048;-73
2022/05/20 13:02:00;;;;;;;3.35;1.02;;;29.60;78.50;;;;;;5056090;28;20045;-74
2022/05/20 13:04:35;;;;;;;3.78;0.98;;;29.70;77.90;;;;;;5048430;28;20044;-73
2022/05/20 13:07:05;;;;;;;2.10;1.00;;;30.00;78.90;;;;;;5052808;28;20139;-73
2022/05/20 13:09:38;;;;;;;5.43;1.30;;;30.10;77.90;;;;;;5053253;28;20044;-74
2022/05/20 13:12:08;;;;;;;2.83;1.13;;;30.10;78.80;;;;;;5048438;28;20048;-74
2022/05/20 13:14:37;;;;;;;1.63;1.10;;;30.10;78.80;;;;;;5053034;28;20075;-73
2022/05/20 13:17:07;;;;;;;2.50;1.38;;;30.30;77.70;;;;;;5051922;28;20090;-73
2022/05/20 13:19:45;;;;;;;2.67;1.13;;;30.40;78.00;;;;;;5052461;28;20045;-74
2022/05/20 13:22:15;;;;;;;1.90;1.10;;;30.30;77.60;;;;;;5052623;28;20049;-74
2022/05/20 13:24:43;;;;;;;4.20;1.25;;;30.20;76.80;;;;;;5034676;28;20056;-74
2022/05/20 13:27:13;;;;;;;2.50;0.90;;;30.40;76.90;;;;;;5047099;28;20045;-74
2022/05/20 13:29:44;;;;;;;2.28;1.05;;;30.70;76.60;;;;;;5052499;28;20525;-74
2022/05/20 13:32:20;;;;;;;2.53;0.90;;;30.60;75.40;;;;;;5056792;28;20502;-73
2022/05/20 13:34:51;;;;;;;2.88;1.00;;;30.60;74.90;;;;;;5059953;28;20076;-74
2022/05/20 13:37:24;;;;;;;2.95;1.10;;;30.80;73.60;;;;;;5053892;28;20052;-74
2022/05/20 13:39:55;;;;;;;2.55;1.00;;;30.80;72.30;;;;;;5043548;28;20139;-73
2022/05/20 13:42:25;;;;;;;2.63;0.60;;;30.70;72.20;;;;;;5054702;28;20048;-73
2022/05/20 13:44:53;;;;;;;4.65;0.90;;;30.80;72.70;;;;;;5060192;28;20442;-74
2022/05/20 13:50:11;;;;;;;4.30;0.98;;;31.10;71.40;;;;;;5058537;28;20049;-73
2022/05/20 13:52:43;;;;;;;2.20;0.95;;;31.00;70.70;;;;;;5051389;28;20155;-73
2022/05/20 13:55:14;;;;;;;2.20;0.80;;;31.10;71.00;;;;;;5055767;28;20569;-73
2022/05/20 13:57:45;;;;;;;1.60;0.80;;;31.20;71.00;;;;;;5058993;28;20472;-73
2022/05/20 14:00:32;;;;;;;1.48;1.02;;;31.30;70.40;;;;;;5051119;28;20052;-73
2022/05/20 14:03:14;;;;;;;1.90;1.02;;;31.30;71.80;;;;;;5044178;28;20041;-73